Time;durP1;ratioP1;P1;durP2;ratioP2;P2;SDS_P1;SDS_P2;PMS_P1;PMS_P2;Temp;Humidity;BMP_temperature;BMP_pressure;BME280_temperature;BME280_humidity;BME280_pressure;Samples;Min_cycle;Max_cycle;Signal;HPM_P1;HPM_P2
2022/11/16 00:00:17;;;;;;;12.18;10.88;;;;;;;10.90;100.00;99748.16;5045091;28;20126;-70
2022/11/16 00:02:43;;;;;;;13.82;11.70;;;;;;;10.87;100.00;99749.47;5045369;28;20037;-68
2022/11/16 00:05:08;;;;;;;14.15;11.82;;;;;;;10.93;100.00;99749.53;5038374;28;20037;-69
2022/11/16 00:07:34;;;;;;;15.02;12.27;;;;;;;10.88;100.00;99750.31;5046187;28;20094;-71
2022/11/16 00:09:59;;;;;;;16.33;12.05;;;;;;;10.90;100.00;99750.91;5045444;28;20115;-70
2022/11/16 00:12:24;;;;;;;17.50;12.97;;;;;;;10.89;100.00;99755.53;5045735;28;20029;-68
2022/11/16 00:14:50;;;;;;;15.68;12.88;;;;;;;10.90;100.00;99754.47;5044460;28;20299;-69
2022/11/16 00:17:15;;;;;;;16.40;13.02;;;;;;;10.92;100.00;99751.44;5046009;28;20055;-69
2022/11/16 00:19:40;;;;;;;17.10;13.27;;;;;;;10.93;100.00;99755.03;5044996;28;20090;-69
2022/11/16 00:22:05;;;;;;;17.23;13.63;;;;;;;10.93;100.00;99749.53;5046691;28;20075;-69
2022/11/16 00:24:31;;;;;;;23.88;13.07;;;;;;;10.94;100.00;99751.19;5046295;28;20044;-69
2022/11/16 00:26:56;;;;;;;16.63;13.17;;;;;;;10.94;100.00;99757.50;5034544;28;20512;-66
2022/11/16 00:29:23;;;;;;;17.58;14.05;;;;;;;10.93;100.00;99755.84;5033841;28;20392;-69
2022/11/16 00:31:49;;;;;;;17.80;14.15;;;;;;;10.95;100.00;99755.59;5042487;28;20133;-68
2022/11/16 00:34:15;;;;;;;19.83;15.40;;;;;;;10.95;100.00;99750.09;5033173;28;20025;-70
2022/11/16 00:36:40;;;;;;;21.23;15.45;;;;;;;10.94;100.00;99749.25;5045892;28;20040;-70
2022/11/16 00:39:06;;;;;;;20.63;15.93;;;;;;;10.93;100.00;99747.63;5046300;28;20380;-68
2022/11/16 00:41:31;;;;;;;20.85;15.82;;;;;;;10.95;100.00;99756.44;5047417;28;20037;-70
2022/11/16 00:43:57;;;;;;;22.38;16.50;;;;;;;10.92;100.00;99748.69;5048965;28;20083;-69
2022/11/16 00:46:22;;;;;;;19.92;15.93;;;;;;;10.90;100.00;99746.22;5048987;28;20078;-70
2022/11/16 00:48:47;;;;;;;24.65;17.75;;;;;;;10.91;100.00;99749.81;5050893;28;20021;-65
2022/11/16 00:51:13;;;;;;;23.60;17.77;;;;;;;10.90;100.00;99743.47;5045459;28;20021;-66
2022/11/16 00:53:38;;;;;;;23.02;18.02;;;;;;;10.90;100.00;99734.41;5029996;28;20033;-69
2022/11/16 00:56:04;;;;;;;21.45;17.17;;;;;;;10.88;100.00;99740.16;5036752;28;20021;-71
2022/11/16 00:58:30;;;;;;;24.00;17.35;;;;;;;10.89;100.00;99732.72;5030248;28;20041;-69
2022/11/16 01:00:55;;;;;;;25.80;18.70;;;;;;;10.87;100.00;99721.19;5035071;28;20032;-66
2022/11/16 01:03:21;;;;;;;24.88;18.27;;;;;;;10.90;100.00;99732.50;5048271;28;20098;-67
2022/11/16 01:05:46;;;;;;;27.67;19.25;;;;;;;10.90;100.00;99735.25;5048669;28;20032;-70
2022/11/16 01:08:11;;;;;;;25.95;18.63;;;;;;;10.89;100.00;99725.31;5049190;28;20032;-70
2022/11/16 01:10:40;;;;;;;29.02;18.83;;;;;;;10.93;100.00;99724.81;5048351;28;20048;-68
2022/11/16 01:13:06;;;;;;;26.90;18.80;;;;;;;10.90;100.00;99721.50;5049165;28;20103;-70
2022/11/16 01:15:31;;;;;;;27.05;18.98;;;;;;;10.89;100.00;99724.50;5040044;28;20116;-69
2022/11/16 01:17:56;;;;;;;28.95;20.20;;;;;;;10.92;100.00;99729.47;5030691;28;20029;-70
2022/11/16 01:20:27;;;;;;;30.52;20.52;;;;;;;10.91;100.00;99736.88;5035209;28;20024;-69
2022/11/16 01:22:54;;;;;;;30.48;20.75;;;;;;;10.91;100.00;99731.41;5049354;28;20044;-70
2022/11/16 01:25:20;;;;;;;28.80;20.75;;;;;;;10.92;100.00;99729.47;5032027;28;20078;-69
2022/11/16 01:27:46;;;;;;;28.20;18.63;;;;;;;10.93;100.00;99714.66;5037878;28;20037;-69
2022/11/16 01:30:13;;;;;;;28.13;18.45;;;;;;;11.00;100.00;99695.19;5044325;28;20044;-68
2022/11/16 01:32:39;;;;;;;27.85;19.35;;;;;;;10.95;100.00;99709.75;5048172;28;20033;-70
2022/11/16 01:35:05;;;;;;;26.05;18.02;;;;;;;10.95;100.00;99717.13;5040216;28;20090;-65
2022/11/16 01:37:31;;;;;;;28.83;17.60;;;;;;;10.95;100.00;99712.47;5046524;28;20043;-70
2022/11/16 01:39:56;;;;;;;26.55;18.33;;;;;;;10.95;100.00;99714.38;5048288;28;20037;-67
2022/11/16 01:42:23;;;;;;;27.20;18.05;;;;;;;10.95;100.00;99701.50;5048110;28;20052;-68
2022/11/16 01:44:49;;;;;;;27.95;18.55;;;;;;;10.95;100.00;99706.13;5048342;28;20099;-70
2022/11/16 01:47:16;;;;;;;24.97;17.13;;;;;;;10.95;100.00;99701.50;5048551;28;20435;-67
2022/11/16 01:49:46;;;;;;;24.75;17.23;;;;;;;10.95;100.00;99707.00;5036867;28;21178;-70
2022/11/16 01:52:15;;;;;;;26.17;16.83;;;;;;;10.96;100.00;99699.56;5049416;28;20045;-71
2022/11/16 01:54:44;;;;;;;23.45;17.35;;;;;;;10.95;100.00;99706.13;5042816;28;20542;-67
2022/11/16 01:57:14;;;;;;;22.58;16.58;;;;;;;11.00;100.00;99708.94;5048358;28;20624;-70
2022/11/16 01:59:40;;;;;;;24.70;17.08;;;;;;;10.97;100.00;99702.06;5046844;28;20017;-69
2022/11/16 02:02:05;;;;;;;24.48;17.20;;;;;;;10.98;100.00;99700.94;5048700;28;20039;-67
2022/11/16 02:04:31;;;;;;;24.35;16.65;;;;;;;10.98;100.00;99706.44;5048219;28;20491;-70
2022/11/16 02:06:56;;;;;;;21.02;15.00;;;;;;;10.99;100.00;99696.28;5048535;28;20041;-70
2022/11/16 02:09:56;;;;;;;20.47;15.67;;;;;;;11.04;100.00;99693.59;5047027;28;20073;-65
2022/11/16 02:12:26;;;;;;;19.00;14.82;;;;;;;11.02;100.00;99695.78;5035269;28;20033;-67
2022/11/16 02:15:01;;;;;;;20.27;15.40;;;;;;;11.03;100.00;99692.75;5077449;22;20078;-67
2022/11/16 02:17:43;;;;;;;21.05;15.65;;;;;;;11.02;100.00;99690.28;5025288;28;20037;-66
2022/11/16 02:20:30;;;;;;;19.13;15.52;;;;;;;11.04;100.00;99693.59;5008640;28;20483;-67
2022/11/16 02:23:23;;;;;;;16.67;14.27;;;;;;;11.05;100.00;99695.22;5008349;28;20380;-66
2022/11/16 02:26:00;;;;;;;18.85;14.35;;;;;;;11.07;100.00;99698.56;5024417;28;20451;-64
2022/11/16 02:28:47;;;;;;;17.05;14.63;;;;;;;11.08;100.00;99686.47;5027230;28;20040;-67
2022/11/16 02:31:17;;;;;;;15.85;13.93;;;;;;;11.09;100.00;99688.94;5027071;28;20033;-67
2022/11/16 02:33:45;;;;;;;17.30;14.15;;;;;;;11.12;100.00;99688.44;5025741;28;20659;-68
2022/11/16 02:36:15;;;;;;;14.45;12.75;;;;;;;11.15;100.00;99689.81;5026065;28;20037;-66
2022/11/16 02:38:46;;;;;;;14.85;12.90;;;;;;;11.15;100.00;99689.81;5025796;28;20197;-67
2022/11/16 02:41:16;;;;;;;16.58;13.32;;;;;;;11.14;100.00;99694.50;5026415;28;20033;-64
2022/11/16 02:43:51;;;;;;;15.07;13.02;;;;;;;11.18;100.00;99695.63;5026580;28;20803;-62
2022/11/16 02:46:25;;;;;;;14.45;12.95;;;;;;;11.16;100.00;99688.75;5026862;28;20099;-66
2022/11/16 02:48:54;;;;;;;14.90;13.40;;;;;;;11.20;100.00;99700.84;5028200;28;20368;-63
2022/11/16 02:51:21;;;;;;;14.48;12.52;;;;;;;11.18;100.00;99695.63;5027548;28;20399;-68
2022/11/16 02:53:59;;;;;;;14.90;11.88;;;;;;;11.20;100.00;99700.03;5027865;28;20025;-63
2022/11/16 02:56:25;;;;;;;11.77;10.57;;;;;;;11.20;100.00;99705.53;5027680;28;20029;-67
2022/11/16 02:58:51;;;;;;;13.45;11.52;;;;;;;11.20;100.00;99702.78;5025513;28;20037;-65
2022/11/16 03:01:37;;;;;;;11.88;10.23;;;;;;;11.21;100.00;99698.97;5026971;28;20045;-67
2022/11/16 03:04:12;;;;;;;12.00;10.05;;;;;;;11.20;100.00;99703.59;5012112;28;20830;-66
2022/11/16 03:06:40;;;;;;;11.15;9.50;;;;;;;11.17;100.00;99704.16;5017396;28;20072;-66
2022/11/16 03:09:11;;;;;;;12.07;9.25;;;;;;;11.16;100.00;99697.00;5039881;28;20033;-66
2022/11/16 03:12:00;;;;;;;10.80;8.90;;;;;;;11.11;100.00;99700.53;5025889;28;20049;-67
2022/11/16 03:14:32;;;;;;;9.80;8.57;;;;;;;11.09;100.00;99702.69;5025119;28;20121;-68
2022/11/16 03:17:00;;;;;;;11.00;8.52;;;;;;;11.07;100.00;99698.56;5027908;28;20040;-68
2022/11/16 03:19:41;;;;;;;10.93;7.97;;;;;;;11.05;100.00;99706.22;5026418;28;20033;-68
2022/11/16 03:22:10;;;;;;;11.40;9.88;;;;;;;11.00;100.00;99701.53;5026144;28;20033;-65
2022/11/16 03:24:36;;;;;;;9.95;8.43;;;;;;;10.97;100.00;99693.81;5027080;28;20128;-68
2022/11/16 03:27:21;;;;;;;8.93;7.70;;;;;;;10.97;100.00;99698.47;5026985;28;20431;-63
2022/11/16 03:29:59;;;;;;;9.20;7.80;;;;;;;10.94;100.00;99699.00;5022945;28;20044;-64
2022/11/16 03:32:32;;;;;;;9.43;7.80;;;;;;;10.90;100.00;99702.28;5023956;28;20041;-66
2022/11/16 03:35:23;;;;;;;10.60;7.88;;;;;;;10.91;100.00;99695.69;5025968;28;20052;-68
2022/11/16 03:37:51;;;;;;;9.38;7.38;;;;;;;10.87;100.00;99701.97;5017215;28;20034;-65
2022/11/16 03:40:17;;;;;;;;;;;;;;;10.89;100.00;99703.34;5027416;28;20113;-68
2022/11/16 03:42:44;;;;;;;9.48;7.63;;;;;;;10.82;100.00;99705.47;5024937;28;19996;-66
2022/11/16 03:45:11;;;;;;;10.88;8.70;;;;;;;10.79;100.00;99708.75;5024310;28;20034;-67
2022/11/16 03:47:36;;;;;;;10.07;7.90;;;;;;;10.77;100.00;99708.19;5027148;28;20040;-64
2022/11/16 03:50:01;;;;;;;12.85;8.18;;;;;;;10.75;100.00;99717.78;5027297;28;20663;-68
2022/11/16 03:52:26;;;;;;;9.45;7.95;;;;;;;10.75;100.00;99713.13;5025154;28;20028;-68
2022/11/16 03:54:52;;;;;;;10.07;8.43;;;;;;;10.73;100.00;99729.00;5026863;28;20053;-67
2022/11/16 03:57:17;;;;;;;10.18;7.95;;;;;;;10.69;100.00;99725.13;5025968;28;20127;-68
2022/11/16 03:59:44;;;;;;;10.30;7.90;;;;;;;10.68;100.00;99737.19;5024876;28;20041;-65
2022/11/16 04:02:09;;;;;;;11.25;7.45;;;;;;;10.65;100.00;99726.75;5026170;28;20022;-68
2022/11/16 04:29:14;;;;;;;8.77;4.53;;;;;;;10.26;100.00;99745.22;5017447;28;20117;-67
2022/11/16 04:39:57;;;;;;;10.63;5.10;;;;;;;10.16;100.00;99761.53;5026575;28;20095;-68
2022/11/16 04:42:23;;;;;;;8.18;4.68;;;;;;;10.13;100.00;99754.63;5022997;28;20649;-66
2022/11/16 04:47:32;;;;;;;8.07;4.05;;;;;;;10.07;100.00;99759.22;5025065;28;20076;-65
2022/11/16 04:49:57;;;;;;;6.28;4.05;;;;;;;10.05;100.00;99766.06;5026080;28;20524;-68
2022/11/16 04:52:22;;;;;;;9.50;3.92;;;;;;;10.03;100.00;99765.47;5023886;28;20036;-68
2022/11/16 04:54:48;;;;;;;9.20;3.90;;;;;;;9.99;100.00;99769.81;5024022;28;20458;-67
2022/11/16 04:57:13;;;;;;;8.18;3.97;;;;;;;9.96;100.00;99776.63;5025433;28;20033;-67
2022/11/16 04:59:38;;;;;;;10.93;3.80;;;;;;;9.95;100.00;99779.63;5023777;28;20033;-67
2022/11/16 05:02:09;;;;;;;8.57;4.00;;;;;;;9.92;100.00;99782.88;5025030;28;20155;-68
2022/11/16 05:04:41;;;;;;;8.98;4.53;;;;;;;9.88;100.00;99782.53;5025437;28;20041;-63
2022/11/16 05:07:10;;;;;;;9.38;4.40;;;;;;;9.86;100.00;99787.47;5026101;28;20057;-66
2022/11/16 05:09:41;;;;;;;9.02;4.85;;;;;;;9.84;100.00;99790.47;5025019;28;20021;-64
2022/11/16 05:12:08;;;;;;;9.10;4.68;;;;;;;9.80;100.00;99792.03;5023935;28;20038;-68
2022/11/16 05:14:34;;;;;;;7.68;4.20;;;;;;;9.81;100.00;99798.34;5023493;28;20107;-66
2022/11/16 05:16:59;;;;;;;10.45;4.60;;;;;;;9.77;100.00;99795.28;5025923;28;20029;-68
2022/11/16 05:22:08;;;;;;;7.68;4.00;;;;;;;9.75;100.00;99799.34;5025683;28;20065;-67
2022/11/16 05:24:33;;;;;;;12.48;5.47;;;;;;;9.72;100.00;99795.19;5027763;28;20464;-68
2022/11/16 05:27:00;;;;;;;9.13;4.50;;;;;;;9.69;100.00;99794.88;5027877;28;20025;-69
2022/11/16 05:29:26;;;;;;;11.25;5.10;;;;;;;9.65;100.00;99796.47;5027752;28;20032;-69
2022/11/16 05:31:51;;;;;;;8.25;4.63;;;;;;;9.62;100.00;99806.00;5027199;28;20037;-66
2022/11/16 05:34:16;;;;;;;11.40;5.40;;;;;;;9.57;100.00;99800.44;5029231;28;20120;-67
2022/11/16 05:36:42;;;;;;;10.07;4.70;;;;;;;9.53;100.00;99788.31;5028932;28;20040;-67
2022/11/16 05:39:07;;;;;;;10.07;5.70;;;;;;;9.49;100.00;99796.22;5029173;28;20032;-63
2022/11/16 05:41:32;;;;;;;8.55;4.53;;;;;;;9.42;100.00;99791.97;5023796;28;20025;-64
2022/11/16 05:43:58;;;;;;;12.23;5.10;;;;;;;9.35;100.00;99792.97;5025037;28;20061;-65
2022/11/16 05:46:24;;;;;;;8.98;5.05;;;;;;;9.33;100.00;99788.84;5027441;28;20081;-68
2022/11/16 05:48:50;;;;;;;11.60;4.90;;;;;;;9.28;100.00;99788.75;5029545;28;20088;-66
2022/11/16 05:51:15;;;;;;;12.02;4.70;;;;;;;9.26;100.00;99783.50;5028464;28;20036;-68
2022/11/16 05:53:40;;;;;;;15.27;5.32;;;;;;;9.20;100.00;99784.50;5028085;28;20384;-67
2022/11/16 05:56:06;;;;;;;11.05;5.10;;;;;;;9.15;100.00;99789.88;5029554;28;20025;-67
2022/11/16 05:58:31;;;;;;;10.05;5.07;;;;;;;9.12;100.00;99789.53;5025224;28;20511;-66
2022/11/16 06:00:57;;;;;;;12.43;6.15;;;;;;;9.04;100.00;99791.63;5028016;28;20036;-70
2022/11/16 06:03:22;;;;;;;11.88;5.88;;;;;;;8.99;100.00;99794.25;5028556;28;20099;-65
2022/11/16 06:05:52;;;;;;;10.73;5.60;;;;;;;8.94;100.00;99793.34;5029731;28;20435;-69
2022/11/16 06:08:17;;;;;;;10.52;5.57;;;;;;;8.91;100.00;99802.88;5026057;28;20088;-71
2022/11/16 06:10:42;;;;;;;12.20;5.28;;;;;;;8.87;100.00;99809.94;5027157;28;20389;-68
2022/11/16 06:13:07;;;;;;;10.88;5.63;;;;;;;8.81;100.00;99803.50;5028299;28;20030;-69
2022/11/16 06:15:36;;;;;;;13.27;5.65;;;;;;;8.79;100.00;99810.31;5028381;28;20045;-71
2022/11/16 06:18:01;;;;;;;12.30;5.60;;;;;;;8.75;100.00;99815.44;5027524;28;20021;-69
2022/11/16 06:20:26;;;;;;;13.45;6.00;;;;;;;8.74;100.00;99815.69;5028803;28;20021;-70
2022/11/16 06:22:52;;;;;;;13.30;6.88;;;;;;;8.69;100.00;99810.94;5028452;28;20025;-70
2022/11/16 06:25:17;;;;;;;12.88;6.13;;;;;;;8.70;100.00;99820.81;5028578;28;20045;-70
2022/11/16 06:27:42;;;;;;;12.80;6.68;;;;;;;8.67;100.00;99823.19;5027581;28;20434;-71
2022/11/16 06:30:08;;;;;;;11.25;6.80;;;;;;;8.64;100.00;99830.00;5024441;28;20026;-69
2022/11/16 06:32:33;;;;;;;16.02;7.53;;;;;;;8.62;100.00;99829.44;5026436;28;20033;-71
2022/11/16 06:34:58;;;;;;;13.23;7.40;;;;;;;8.58;100.00;99833.72;5028545;28;20022;-69
2022/11/16 06:37:24;;;;;;;14.07;8.25;;;;;;;8.56;100.00;99841.31;5022105;28;20034;-68
2022/11/16 06:39:49;;;;;;;14.48;8.18;;;;;;;8.52;100.00;99843.72;5020284;28;20083;-71
2022/11/16 06:42:14;;;;;;;14.73;7.60;;;;;;;8.51;100.00;99847.50;5013174;28;20368;-66
2022/11/16 06:44:40;;;;;;;15.27;8.57;;;;;;;8.50;100.00;99850.50;5025568;28;20083;-70
2022/11/16 06:47:05;;;;;;;14.30;8.68;;;;;;;8.46;100.00;99852.88;5026333;28;20027;-71
2022/11/16 06:49:30;;;;;;;15.93;9.75;;;;;;;8.44;100.00;99848.72;5025725;28;20033;-69
2022/11/16 06:51:55;;;;;;;17.55;9.70;;;;;;;8.49;100.00;99857.88;5027943;28;20458;-71
2022/11/16 06:54:21;;;;;;;18.20;10.25;;;;;;;8.45;100.00;99859.44;5026928;28;20038;-67
2022/11/16 06:56:47;;;;;;;18.95;11.00;;;;;;;8.44;100.00;99852.31;5028406;28;20034;-65
2022/11/16 06:59:12;;;;;;;18.80;11.15;;;;;;;8.43;100.00;99861.59;5026353;28;20021;-71
2022/11/16 07:01:37;;;;;;;21.17;11.55;;;;;;;8.43;100.00;99866.22;5026834;28;20026;-67
2022/11/16 07:04:02;;;;;;;18.15;10.80;;;;;;;8.40;100.00;99863.97;5027673;28;20025;-65
2022/11/16 07:06:28;;;;;;;17.27;10.73;;;;;;;8.41;100.00;99866.44;5025553;28;20030;-70
2022/11/16 07:08:54;;;;;;;14.40;10.15;;;;;;;8.42;100.00;99864.56;5023955;28;20032;-68
2022/11/16 07:11:19;;;;;;;16.88;10.60;;;;;;;8.42;100.00;99864.56;5025853;28;20033;-71
2022/11/16 07:13:45;;;;;;;16.25;9.57;;;;;;;8.41;100.00;99862.88;5025587;28;20033;-68
2022/11/16 07:16:11;;;;;;;17.02;9.23;;;;;;;8.44;100.00;99863.25;5022302;28;20404;-67
2022/11/16 07:18:38;;;;;;;17.13;9.38;;;;;;;8.42;100.00;99862.66;5025657;28;20031;-70
2022/11/16 07:21:09;;;;;;;19.33;9.07;;;;;;;8.42;100.00;99865.41;5025677;28;20029;-71
2022/11/16 07:23:35;;;;;;;13.88;8.98;;;;;;;8.44;100.00;99873.38;5023234;28;20033;-69
2022/11/16 07:26:02;;;;;;;15.80;9.02;;;;;;;8.41;100.00;99873.84;5026820;28;20080;-64
2022/11/16 07:28:28;;;;;;;16.95;9.63;;;;;;;8.42;100.00;99870.88;5024575;28;20083;-67
2022/11/16 07:30:54;;;;;;;14.68;8.77;;;;;;;8.40;100.00;99881.22;5027882;28;20025;-70
2022/11/16 07:33:19;;;;;;;15.63;8.52;;;;;;;8.44;100.00;99889.78;5024602;28;20072;-67
2022/11/16 07:35:45;;;;;;;15.60;8.20;;;;;;;8.46;100.00;99896.66;5025449;28;20531;-71
2022/11/16 07:38:10;;;;;;;15.75;7.90;;;;;;;8.49;100.00;99896.19;5023793;28;20052;-67
2022/11/16 07:40:36;;;;;;;16.27;8.57;;;;;;;8.48;100.00;99897.28;5027673;28;20033;-67
2022/11/16 07:43:01;;;;;;;17.10;9.23;;;;;;;8.52;100.00;99903.94;5025099;28;20029;-70
2022/11/16 07:45:26;;;;;;;17.83;9.70;;;;;;;8.55;100.00;99899.88;5027096;28;20029;-72
2022/11/16 07:47:52;;;;;;;18.67;9.82;;;;;;;8.54;100.00;99901.78;5026615;28;20061;-67
2022/11/16 07:50:17;;;;;;;18.38;10.40;;;;;;;8.57;100.00;99905.97;5027556;28;20388;-70
2022/11/16 07:52:45;;;;;;;18.38;9.95;;;;;;;8.60;100.00;99908.19;5027059;28;20033;-69
2022/11/16 07:55:11;;;;;;;17.15;10.18;;;;;;;8.60;100.00;99910.94;5020172;28;20033;-67
2022/11/16 07:57:36;;;;;;;19.23;9.30;;;;;;;8.62;100.00;99913.41;5025919;28;20045;-68
2022/11/16 08:00:03;;;;;;;20.75;10.98;;;;;;;8.64;100.00;99912.13;5027325;28;20560;-71
2022/11/16 08:02:28;;;;;;;21.15;10.07;;;;;;;8.71;100.00;99909.25;5026856;28;20029;-71
2022/11/16 08:04:54;;;;;;;17.35;9.80;;;;;;;8.80;100.00;99914.09;5024959;28;20060;-69
2022/11/16 08:07:19;;;;;;;23.13;9.80;;;;;;;8.89;100.00;99909.09;5026313;28;20084;-66
2022/11/16 08:09:44;;;;;;;21.75;9.45;;;;;;;8.95;100.00;99912.75;5026077;28;20083;-70
2022/11/16 08:12:10;;;;;;;18.30;9.90;;;;;;;9.00;100.00;99921.06;5027351;28;20488;-71
2022/11/16 08:14:35;;;;;;;16.35;8.23;;;;;;;9.09;100.00;99920.44;5025364;28;20763;-66
2022/11/16 08:17:02;;;;;;;20.27;8.65;;;;;;;9.27;100.00;99924.06;5027020;28;20475;-68
2022/11/16 08:19:27;;;;;;;14.45;8.00;;;;;;;9.82;100.00;99921.50;5026743;28;20482;-69
2022/11/16 08:21:53;;;;;;;15.00;7.05;;;;;;;10.22;100.00;99920.50;5026626;28;20025;-68
2022/11/16 08:24:18;;;;;;;16.55;6.53;;;;;;;10.43;100.00;99918.91;5021814;28;20041;-70
2022/11/16 08:26:44;;;;;;;18.13;6.13;;;;;;;10.53;100.00;99920.97;5022931;28;20132;-68
2022/11/16 08:29:10;;;;;;;10.35;5.15;;;;;;;10.61;100.00;99929.63;5010279;28;20037;-68
2022/11/16 08:31:35;;;;;;;14.18;5.20;;;;;;;10.57;100.00;99920.22;5014640;28;20069;-68
2022/11/16 08:34:01;;;;;;;14.85;5.55;;;;;;;10.48;100.00;99920.91;5010044;28;20105;-66
2022/11/16 08:36:26;;;;;;;11.82;5.25;;;;;;;10.30;100.00;99924.78;5010857;28;20455;-68
2022/11/16 08:38:52;;;;;;;16.45;5.07;;;;;;;10.16;100.00;99924.25;5015444;28;20452;-69
2022/11/16 08:41:19;;;;;;;12.30;4.57;;;;;;;10.14;100.00;99929.16;5008253;28;20022;-67
2022/11/16 08:43:46;;;;;;;11.85;4.03;;;;;;;10.17;100.00;99923.16;5008131;28;20507;-69
2022/11/16 08:46:12;;;;;;;12.65;5.00;;;;;;;10.33;100.00;99927.00;5017799;28;20033;-67
2022/11/16 08:48:38;;;;;;;10.88;4.22;;;;;;;10.63;100.00;99926.59;5013788;28;20041;-68
2022/11/16 08:51:05;;;;;;;13.15;4.35;;;;;;;11.25;100.00;99936.44;5011654;28;20096;-67
2022/11/16 08:53:30;;;;;;;16.50;4.05;;;;;;;11.88;95.08;99923.94;5008985;28;20132;-67
2022/11/16 08:56:04;;;;;;;13.30;3.80;;;;;;;12.67;90.97;99931.34;5013694;28;20091;-67
2022/11/16 08:58:29;;;;;;;10.30;3.72;;;;;;;13.32;86.75;99927.25;5019185;28;20044;-66
2022/11/16 09:00:55;;;;;;;12.90;3.72;;;;;;;13.54;83.65;99934.50;5016050;28;20041;-66
2022/11/16 09:03:20;;;;;;;7.85;3.30;;;;;;;13.18;83.58;99937.13;5014911;28;20025;-65
2022/11/16 09:05:45;;;;;;;13.82;3.30;;;;;;;13.42;83.60;99937.50;5015861;28;20057;-66
2022/11/16 09:08:11;;;;;;;11.30;3.15;;;;;;;13.67;79.40;99928.44;5012759;28;20032;-66
2022/11/16 09:10:36;;;;;;;9.48;3.15;;;;;;;13.79;79.16;99933.69;5019957;28;23264;-66
2022/11/16 09:13:02;;;;;;;12.40;3.33;;;;;;;14.17;78.25;99927.63;5013177;28;20037;-66
2022/11/16 09:15:27;;;;;;;14.82;3.58;;;;;;;14.51;77.24;99933.44;5016018;28;20129;-67
2022/11/16 09:17:53;;;;;;;10.93;3.35;;;;;;;14.72;74.26;99934.22;5013749;28;20025;-65
2022/11/16 09:20:19;;;;;;;12.23;3.38;;;;;;;14.18;75.73;99936.75;5015985;28;20042;-66
2022/11/16 09:22:44;;;;;;;10.77;3.08;;;;;;;13.78;77.22;99938.38;5021248;28;20033;-66
2022/11/16 09:25:10;;;;;;;9.20;3.00;;;;;;;14.18;76.61;99934.81;5015590;28;20839;-66
2022/11/16 09:27:35;;;;;;;11.52;3.00;;;;;;;14.20;75.04;99938.16;5020664;28;20320;-66
2022/11/16 09:30:01;;;;;;;11.27;2.78;;;;;;;14.59;74.51;99939.50;5017900;28;20028;-67
2022/11/16 09:32:26;;;;;;;9.48;2.70;;;;;;;14.87;71.13;99929.75;5014741;28;20022;-67
2022/11/16 09:34:52;;;;;;;11.60;2.67;;;;;;;15.20;70.04;99933.75;5019487;28;20079;-66
2022/11/16 09:37:18;;;;;;;9.43;2.55;;;;;;;15.78;69.02;99932.06;5022027;28;20062;-66
2022/11/16 09:39:43;;;;;;;9.35;2.58;;;;;;;16.16;66.07;99934.28;5008905;28;20049;-65
2022/11/16 09:42:25;;;;;;;11.98;3.20;;;;;;;16.15;66.40;99929.84;5014311;28;20502;-67
2022/11/16 09:45:27;;;;;;;11.27;3.08;;;;;;;16.49;66.42;99935.38;5017050;28;20037;-65
2022/11/16 09:48:01;;;;;;;10.25;2.55;;;;;;;16.78;64.56;99940.94;5002914;28;20667;-66
2022/11/16 09:50:45;;;;;;;8.18;2.33;;;;;;;17.24;62.86;99949.53;5017437;28;20770;-66
2022/11/16 09:53:36;;;;;;;10.68;2.28;;;;;;;17.44;61.54;99937.34;5011831;28;20029;-67
2022/11/16 09:56:05;;;;;;;11.75;3.20;;;;;;;18.39;58.96;99938.91;5022441;28;20324;-67
2022/11/16 09:59:03;;;;;;;11.38;3.10;;;;;;;18.57;57.43;99942.78;5026864;28;20025;-65
2022/11/16 10:01:35;;;;;;;7.53;2.13;;;;;;;18.73;56.18;99945.31;5027117;28;20053;-65
2022/11/16 10:04:10;;;;;;;10.02;2.63;;;;;;;18.69;56.08;99938.69;5029527;28;20435;-67
2022/11/16 10:07:12;;;;;;;11.25;2.30;;;;;;;18.24;59.72;99952.25;5022985;28;20025;-66
2022/11/16 10:09:37;;;;;;;8.98;2.15;;;;;;;18.41;56.14;99955.31;5024856;28;20076;-67
2022/11/16 10:12:09;;;;;;;9.80;2.75;;;;;;;18.45;55.55;99956.34;5027370;28;20064;-66
2022/11/16 10:14:53;;;;;;;8.60;2.13;;;;;;;18.23;56.35;99954.19;5028279;28;20116;-66
2022/11/16 10:17:24;;;;;;;8.90;2.10;;;;;;;18.74;55.04;99946.94;5029311;28;20423;-67
2022/11/16 10:20:24;;;;;;;7.72;2.50;;;;;;;19.35;54.55;99946.53;5028321;28;20381;-66
2022/11/16 10:23:05;;;;;;;8.35;2.13;;;;;;;18.90;54.99;99946.34;5028388;28;20495;-65
2022/11/16 10:26:00;;;;;;;8.13;2.00;;;;;;;19.21;56.11;99944.88;5028837;28;20064;-66
2022/11/16 10:28:51;;;;;;;8.63;2.30;;;;;;;19.78;53.82;99937.81;5025675;28;20052;-66
2022/11/16 10:31:53;;;;;;;6.40;1.90;;;;;;;20.26;52.25;99940.00;5025591;28;20060;-67
2022/11/16 10:34:27;;;;;;;7.25;2.00;;;;;;;19.52;50.38;99943.13;5028693;28;20029;-65
2022/11/16 10:37:02;;;;;;;9.10;2.28;;;;;;;19.76;50.42;99947.63;5025710;28;20037;-66
2022/11/16 10:39:30;;;;;;;8.27;2.35;;;;;;;19.99;49.81;99943.72;5028348;28;20942;-66
2022/11/16 10:41:59;;;;;;;;;;;;;;;19.98;53.05;99939.31;5027993;28;20528;-66
2022/11/16 10:44:38;;;;;;;8.10;1.98;;;;;;;20.05;50.99;99930.50;5026541;28;19939;-66
2022/11/16 10:47:13;;;;;;;6.07;1.73;;;;;;;19.94;50.67;99932.72;5008951;28;20424;-66
2022/11/16 10:50:00;;;;;;;7.32;1.80;;;;;;;20.10;50.54;99933.97;5009089;28;20064;-65
2022/11/16 10:52:26;;;;;;;7.90;2.00;;;;;;;19.76;50.17;99925.31;5007971;28;20067;-66
2022/11/16 10:54:51;;;;;;;7.07;1.60;;;;;;;19.90;49.37;99928.91;5008688;28;20473;-66
2022/11/16 10:57:17;;;;;;;7.38;2.22;;;;;;;19.98;49.03;99930.13;5023445;28;20435;-66
2022/11/16 10:59:42;;;;;;;10.18;2.47;;;;;;;19.80;49.37;99931.94;5027429;28;20136;-65
2022/11/16 11:02:29;;;;;;;8.20;2.15;;;;;;;20.10;51.05;99935.94;5027317;28;20456;-66
2022/11/16 11:05:15;;;;;;;6.47;1.80;;;;;;;19.85;50.51;99929.03;5026664;28;20045;-66
2022/11/16 11:07:45;;;;;;;8.02;2.15;;;;;;;19.08;51.01;99930.69;5027135;28;20284;-67
2022/11/16 11:10:31;;;;;;;8.68;2.30;;;;;;;18.87;52.50;99935.00;5025345;28;20753;-67
2022/11/16 11:13:19;;;;;;;5.63;1.83;;;;;;;16.70;57.72;99938.75;5015604;28;20053;-67
2022/11/16 11:15:46;;;;;;;7.03;1.88;;;;;;;15.41;61.49;99935.34;5027467;28;20049;-67
2022/11/16 11:18:14;;;;;;;8.30;2.25;;;;;;;15.50;63.84;99927.25;5027356;28;20714;-67
2022/11/16 11:20:42;;;;;;;8.50;2.00;;;;;;;17.10;58.83;99927.22;5025511;28;20036;-67
2022/11/16 11:23:14;;;;;;;8.68;2.10;;;;;;;18.40;54.57;99914.72;5024522;28;20140;-65
2022/11/16 11:25:57;;;;;;;7.00;1.90;;;;;;;18.81;53.84;99916.78;5019350;28;20040;-66
2022/11/16 11:28:32;;;;;;;8.90;2.03;;;;;;;18.71;51.45;99925.31;5025070;28;20124;-66
2022/11/16 11:31:03;;;;;;;8.15;2.40;;;;;;;18.87;51.53;99913.56;5023611;28;20033;-66
2022/11/16 11:33:34;;;;;;;7.25;1.60;;;;;;;18.41;51.85;99927.50;5008565;28;20120;-66
2022/11/16 11:36:01;;;;;;;7.63;2.00;;;;;;;17.89;54.19;99921.13;5025765;28;20426;-65
2022/11/16 11:38:28;;;;;;;6.00;1.55;;;;;;;17.54;54.22;99914.16;5025766;28;20103;-67
2022/11/16 11:40:59;;;;;;;7.32;1.85;;;;;;;17.10;56.47;99910.56;5026044;28;20128;-66
2022/11/16 11:43:25;;;;;;;6.70;1.95;;;;;;;16.61;56.94;99917.19;5026160;28;20029;-67
2022/11/16 11:45:57;;;;;;;5.63;2.00;;;;;;;15.29;60.22;99908.00;5023770;28;20037;-66
2022/11/16 11:48:30;;;;;;;9.18;2.00;;;;;;;14.35;63.25;99919.91;5026880;28;20044;-68
2022/11/16 11:51:10;;;;;;;8.85;2.40;;;;;;;13.66;66.13;99913.81;5023392;28;20414;-65
2022/11/16 11:53:44;;;;;;;6.93;2.03;;;;;;;13.18;68.93;99910.38;5025524;28;20449;-65
2022/11/16 11:56:11;;;;;;;9.30;2.20;;;;;;;12.82;71.15;99912.16;5026368;28;20954;-65
2022/11/16 11:58:39;;;;;;;6.03;1.77;;;;;;;12.67;73.13;99909.31;5025907;28;20496;-65
2022/11/16 12:01:23;;;;;;;7.10;1.75;;;;;;;12.55;74.20;99909.53;5026031;28;20028;-66
2022/11/16 12:04:06;;;;;;;10.10;2.42;;;;;;;12.49;74.17;99912.53;5022885;28;20040;-65
2022/11/16 12:06:44;;;;;;;6.43;1.50;;;;;;;12.40;75.21;99909.44;5024390;28;20035;-66
2022/11/16 12:09:13;;;;;;;;;;;;;;;12.52;74.33;99899.06;5030690;28;20364;-64